Time;durP1;ratioP1;P1;durP2;ratioP2;P2;SDS_P1;SDS_P2;PMS_P1;PMS_P2;Temp;Humidity;BMP_temperature;BMP_pressure;BME280_temperature;BME280_humidity;BME280_pressure;Samples;Min_cycle;Max_cycle;Signal;HPM_P1;HPM_P2
2024/04/14 04:06:58;;;;;;;0.30;0.30;;;12.90;99.90;;;;;;5703775;21;20646;-62
2024/04/14 04:09:24;;;;;;;0.40;0.40;;;12.90;99.90;;;;;;5246908;27;20466;-62
2024/04/14 04:11:49;;;;;;;0.60;0.60;;;12.90;99.90;;;;;;5247061;27;20222;-62
2024/04/14 04:14:15;;;;;;;0.30;0.30;;;12.80;99.90;;;;;;5246887;27;20678;-62
2024/04/14 04:16:41;;;;;;;0.40;0.40;;;12.80;99.90;;;;;;5246411;27;20591;-62
2024/04/14 04:19:06;;;;;;;1.07;1.07;;;12.80;99.90;;;;;;5244814;27;20235;-62
2024/04/14 04:21:32;;;;;;;0.40;0.40;;;12.80;99.90;;;;;;5246980;27;20282;-62
2024/04/14 04:23:57;;;;;;;0.60;0.60;;;12.80;99.90;;;;;;5246928;27;20315;-62
2024/04/14 04:26:23;;;;;;;0.60;0.50;;;12.70;99.90;;;;;;5246296;27;20278;-62
2024/04/14 04:28:48;;;;;;;0.30;0.30;;;12.70;99.90;;;;;;5246588;27;20641;-62
2024/04/14 04:31:14;;;;;;;0.40;0.40;;;12.70;99.90;;;;;;5246737;27;20529;-62
2024/04/14 04:33:40;;;;;;;0.47;0.47;;;12.60;99.90;;;;;;5246940;27;20636;-62
2024/04/14 04:36:05;;;;;;;0.30;0.30;;;12.60;99.90;;;;;;5243000;27;20349;-62
2024/04/14 04:38:31;;;;;;;0.40;0.40;;;12.60;99.90;;;;;;5244848;27;20285;-62
2024/04/14 04:40:56;;;;;;;0.67;0.67;;;12.60;99.90;;;;;;5244977;27;20235;-61
2024/04/14 04:43:23;;;;;;;0.30;0.30;;;12.50;99.90;;;;;;5246567;27;20277;-62
2024/04/14 04:45:49;;;;;;;0.30;0.30;;;12.50;99.90;;;;;;5246087;27;20521;-62
2024/04/14 04:48:15;;;;;;;0.30;0.30;;;12.40;99.90;;;;;;5245027;27;20545;-62
2024/04/14 04:50:45;;;;;;;0.40;0.40;;;12.40;99.90;;;;;;5247278;27;20497;-62
2024/04/14 04:53:11;;;;;;;0.30;0.30;;;12.40;99.90;;;;;;5246980;27;20616;-62
2024/04/14 04:55:36;;;;;;;0.50;0.50;;;12.30;99.90;;;;;;5245999;27;20459;-62
2024/04/14 04:58:02;;;;;;;0.40;0.40;;;12.30;99.90;;;;;;5252710;27;20668;-63
2024/04/14 05:00:28;;;;;;;0.30;0.30;;;12.40;99.90;;;;;;5278986;27;20561;-62
2024/04/14 05:02:53;;;;;;;0.30;0.30;;;12.50;99.90;;;;;;5280133;27;20226;-62
2024/04/14 05:05:19;;;;;;;0.30;0.30;;;12.50;99.90;;;;;;5279732;27;20295;-62
2024/04/14 05:07:45;;;;;;;0.30;0.30;;;12.60;99.90;;;;;;5280012;27;20227;-62
2024/04/14 05:10:11;;;;;;;0.40;0.40;;;12.70;99.90;;;;;;5279785;27;20456;-62
2024/04/14 05:12:36;;;;;;;0.30;0.30;;;12.80;99.90;;;;;;5267550;27;20709;-62
2024/04/14 05:15:04;;;;;;;0.60;0.60;;;12.90;99.90;;;;;;5245515;27;20235;-62
2024/04/14 05:17:31;;;;;;;0.40;0.40;;;12.90;99.90;;;;;;5245992;27;20278;-61
2024/04/14 05:19:56;;;;;;;1.03;0.83;;;13.10;99.90;;;;;;5246149;27;20506;-62
2024/04/14 05:22:22;;;;;;;0.30;0.30;;;13.20;99.90;;;;;;5246137;27;20428;-62
2024/04/14 05:24:47;;;;;;;0.47;0.47;;;13.30;99.90;;;;;;5245662;27;20231;-62
2024/04/14 05:27:15;;;;;;;0.30;0.30;;;13.40;99.90;;;;;;5253580;27;20243;-62
2024/04/14 05:29:45;;;;;;;0.30;0.30;;;13.50;99.90;;;;;;5279533;27;20235;-62
2024/04/14 05:32:14;;;;;;;0.60;0.60;;;13.70;99.90;;;;;;5279551;27;20570;-62
2024/04/14 05:34:40;;;;;;;0.30;0.30;;;13.90;99.90;;;;;;5279261;27;20506;-63
2024/04/14 05:37:05;;;;;;;0.30;0.30;;;14.10;99.90;;;;;;5279450;27;20972;-62
2024/04/14 05:39:31;;;;;;;0.30;0.30;;;14.30;99.90;;;;;;5279317;27;20277;-63
2024/04/14 05:41:57;;;;;;;0.30;0.30;;;14.70;99.90;;;;;;5264717;27;20252;-63
2024/04/14 05:44:23;;;;;;;0.70;0.70;;;14.90;99.90;;;;;;5246024;27;20779;-62
2024/04/14 05:46:48;;;;;;;0.40;0.40;;;15.20;99.90;;;;;;5245858;27;20239;-62
2024/04/14 05:49:14;;;;;;;0.30;0.30;;;15.20;99.90;;;;;;5245862;27;20684;-62
2024/04/14 05:51:39;;;;;;;0.33;0.33;;;15.30;99.90;;;;;;5245799;27;20372;-62
2024/04/14 05:54:05;;;;;;;0.60;0.60;;;15.50;99.90;;;;;;5245812;27;20237;-62
2024/04/14 05:56:30;;;;;;;0.40;0.40;;;15.70;99.90;;;;;;5262757;27;20242;-64
2024/04/14 05:58:56;;;;;;;0.30;0.30;;;16.00;99.90;;;;;;5279128;27;20273;-62
2024/04/14 06:01:21;;;;;;;0.40;0.40;;;16.20;99.90;;;;;;5279370;27;20219;-63
2024/04/14 06:03:47;;;;;;;0.40;0.40;;;16.40;99.90;;;;;;5279389;27;20219;-63
2024/04/14 06:06:13;;;;;;;0.40;0.40;;;16.60;99.90;;;;;;5271870;27;20728;-62
2024/04/14 06:08:38;;;;;;;0.30;0.30;;;16.60;99.90;;;;;;5264158;27;20247;-63
2024/04/14 06:11:04;;;;;;;0.40;0.40;;;16.60;99.90;;;;;;5278272;27;20223;-62
2024/04/14 06:13:32;;;;;;;0.30;0.30;;;16.60;99.90;;;;;;5249098;27;20344;-62
2024/04/14 06:15:58;;;;;;;0.30;0.30;;;16.70;99.90;;;;;;5244843;27;20536;-62
2024/04/14 06:18:23;;;;;;;0.30;0.30;;;16.70;99.90;;;;;;5245282;27;20419;-63
2024/04/14 06:20:49;;;;;;;0.53;0.53;;;16.90;99.90;;;;;;5245342;27;20563;-63
2024/04/14 06:23:14;;;;;;;0.43;0.43;;;16.90;99.90;;;;;;5244914;27;20344;-64
2024/04/14 06:25:40;;;;;;;0.87;0.87;;;17.00;99.90;;;;;;5243624;27;20273;-62
2024/04/14 06:28:06;;;;;;;0.30;0.30;;;17.10;99.90;;;;;;5244370;27;20726;-64
2024/04/14 06:30:31;;;;;;;0.30;0.30;;;17.20;99.90;;;;;;5251836;27;20227;-64
2024/04/14 06:32:57;;;;;;;0.30;0.30;;;17.20;99.90;;;;;;5278749;27;20438;-64
2024/04/14 06:35:23;;;;;;;0.40;0.40;;;17.30;99.90;;;;;;5277742;27;20230;-66
2024/04/14 06:37:48;;;;;;;0.30;0.30;;;17.50;99.90;;;;;;5279413;27;20219;-65
2024/04/14 06:40:14;;;;;;;0.30;0.30;;;17.70;99.90;;;;;;5278175;27;20266;-64
2024/04/14 06:42:40;;;;;;;1.00;0.70;;;18.00;99.90;;;;;;5278234;27;20219;-64
2024/04/14 06:45:06;;;;;;;0.30;0.30;;;18.30;99.90;;;;;;5277436;27;20282;-65
2024/04/14 06:47:32;;;;;;;0.30;0.30;;;18.50;99.90;;;;;;5276483;27;20295;-65
2024/04/14 06:49:58;;;;;;;0.30;0.30;;;18.80;99.90;;;;;;5278446;27;20513;-63
2024/04/14 06:52:24;;;;;;;0.30;0.30;;;19.10;99.90;;;;;;5278498;27;20940;-64
2024/04/14 06:54:49;;;;;;;0.50;0.50;;;19.30;99.70;;;;;;5276036;27;20268;-64
2024/04/14 06:57:15;;;;;;;1.57;0.93;;;19.60;99.10;;;;;;5278209;27;20347;-64
2024/04/14 06:59:42;;;;;;;0.60;0.60;;;19.80;98.80;;;;;;5263312;27;20623;-65
2024/04/14 07:02:07;;;;;;;0.30;0.30;;;20.20;98.20;;;;;;5247284;27;20228;-64
2024/04/14 07:04:33;;;;;;;0.30;0.30;;;20.50;97.70;;;;;;5243759;27;20479;-62
2024/04/14 07:07:00;;;;;;;0.47;0.47;;;20.80;97.40;;;;;;5243503;27;20303;-62
2024/04/14 07:09:26;;;;;;;0.57;0.57;;;21.20;97.20;;;;;;5210684;27;20284;-63
2024/04/14 07:11:52;;;;;;;0.40;0.40;;;21.40;97.10;;;;;;5241959;27;20527;-64
2024/04/14 07:14:19;;;;;;;0.40;0.40;;;21.80;96.40;;;;;;5244419;27;20622;-62
2024/04/14 07:16:45;;;;;;;0.40;0.40;;;22.10;95.60;;;;;;5243626;27;20444;-62
2024/04/14 07:19:11;;;;;;;0.40;0.40;;;22.40;95.30;;;;;;5244142;27;20506;-63
2024/04/14 07:21:39;;;;;;;0.40;0.40;;;22.80;94.40;;;;;;5242037;27;20458;-63
2024/04/14 07:24:05;;;;;;;0.30;0.30;;;23.10;94.10;;;;;;5243950;27;20478;-63
2024/04/14 07:26:31;;;;;;;0.50;0.50;;;23.30;93.40;;;;;;5243783;27;20467;-62
2024/04/14 07:28:57;;;;;;;0.60;0.60;;;23.60;93.70;;;;;;5244089;27;20455;-62
2024/04/14 07:31:22;;;;;;;0.40;0.40;;;24.00;92.30;;;;;;5267569;27;20226;-64
2024/04/14 07:33:48;;;;;;;0.60;0.30;;;24.50;92.20;;;;;;5251474;27;20244;-61
2024/04/14 07:36:13;;;;;;;0.40;0.40;;;25.00;91.00;;;;;;5242908;27;20243;-64
2024/04/14 07:38:39;;;;;;;0.70;0.70;;;25.40;90.10;;;;;;5243677;27;20236;-63
2024/04/14 07:41:04;;;;;;;0.30;0.30;;;25.70;89.30;;;;;;5243744;27;20547;-66
2024/04/14 07:43:30;;;;;;;0.67;0.30;;;26.00;88.20;;;;;;5241731;27;20236;-63
2024/04/14 07:45:56;;;;;;;0.50;0.50;;;26.20;88.00;;;;;;5243627;27;20266;-63
2024/04/14 07:48:21;;;;;;;0.47;0.47;;;26.70;85.80;;;;;;5242730;27;20761;-64
2024/04/14 07:50:48;;;;;;;0.40;0.40;;;27.10;84.30;;;;;;5243618;27;20319;-65
2024/04/14 07:53:15;;;;;;;0.40;0.40;;;27.40;84.60;;;;;;5243414;27;20330;-65
2024/04/14 07:55:40;;;;;;;0.37;0.37;;;27.70;82.50;;;;;;5243066;27;20467;-68
2024/04/14 07:58:06;;;;;;;0.40;0.40;;;28.10;82.20;;;;;;5260800;27;20533;-66
2024/04/14 08:00:32;;;;;;;0.43;0.43;;;28.70;83.40;;;;;;5268314;27;20361;-68
2024/04/14 08:02:57;;;;;;;0.70;0.63;;;29.00;78.00;;;;;;5250671;27;20645;-66
2024/04/14 08:05:23;;;;;;;0.80;0.60;;;29.20;76.00;;;;;;5237712;27;20276;-68
2024/04/14 08:07:48;;;;;;;0.80;0.73;;;29.60;77.90;;;;;;5234145;27;20733;-68
2024/04/14 08:10:14;;;;;;;0.80;0.80;;;30.00;75.00;;;;;;5243880;27;20603;-65
2024/04/14 08:12:39;;;;;;;0.40;0.30;;;30.20;73.30;;;;;;5245694;27;20227;-68
2024/04/14 08:15:05;;;;;;;0.50;0.50;;;30.50;73.90;;;;;;5246570;27;20714;-65
2024/04/14 08:17:31;;;;;;;1.30;0.80;;;30.80;72.90;;;;;;5270674;27;20231;-72
2024/04/14 08:19:57;;;;;;;0.50;0.40;;;31.10;73.30;;;;;;5244717;27;20228;-65
2024/04/14 08:22:23;;;;;;;0.60;0.60;;;31.50;71.40;;;;;;5272172;27;20594;-65
2024/04/14 08:24:48;;;;;;;0.30;0.30;;;31.80;71.10;;;;;;5253009;27;20251;-65
2024/04/14 08:27:14;;;;;;;0.43;0.43;;;31.90;69.30;;;;;;5260130;27;20272;-64
2024/04/14 08:29:39;;;;;;;0.50;0.50;;;32.00;67.50;;;;;;5247925;27;20315;-63
2024/04/14 08:32:05;;;;;;;0.40;0.40;;;32.00;69.90;;;;;;5251146;27;20335;-64
2024/04/14 08:34:31;;;;;;;0.50;0.50;;;31.90;66.50;;;;;;5247009;27;20236;-64
2024/04/14 08:36:57;;;;;;;0.50;0.50;;;31.90;66.10;;;;;;5243694;27;21311;-67
2024/04/14 08:39:22;;;;;;;0.50;0.50;;;31.50;67.20;;;;;;5244052;27;20220;-64
2024/04/14 08:41:48;;;;;;;0.40;0.30;;;31.40;67.40;;;;;;5243496;27;20326;-66
2024/04/14 08:44:15;;;;;;;0.50;0.50;;;31.50;67.80;;;;;;5244775;27;20284;-65
2024/04/14 08:46:45;;;;;;;0.30;0.27;;;31.80;67.10;;;;;;5242635;27;20504;-67
2024/04/14 08:49:12;;;;;;;0.33;0.30;;;32.00;65.90;;;;;;5262036;27;20454;-66
2024/04/14 08:51:38;;;;;;;0.40;0.40;;;31.90;65.00;;;;;;5273615;27;20759;-66
2024/04/14 08:54:04;;;;;;;0.40;0.40;;;31.80;64.70;;;;;;5273728;27;20552;-65
2024/04/14 08:56:34;;;;;;;0.40;0.40;;;31.90;65.10;;;;;;5271256;27;20296;-67
2024/04/14 08:59:07;;;;;;;0.30;0.30;;;32.10;64.70;;;;;;5274377;27;20234;-65
2024/04/14 09:01:36;;;;;;;1.20;1.10;;;32.40;67.30;;;;;;5248838;27;20579;-66
2024/04/14 09:04:04;;;;;;;0.77;0.77;;;32.00;62.60;;;;;;5245250;27;20468;-64
2024/04/14 09:06:31;;;;;;;0.40;0.40;;;31.80;65.20;;;;;;5245845;27;20440;-64
2024/04/14 09:08:57;;;;;;;0.50;0.50;;;31.80;64.90;;;;;;5245999;27;20779;-64
2024/04/14 09:11:23;;;;;;;0.40;0.30;;;31.80;66.40;;;;;;5246084;27;20498;-64
2024/04/14 09:13:50;;;;;;;0.50;0.50;;;31.70;64.20;;;;;;5246176;27;20607;-63
2024/04/14 09:16:17;;;;;;;0.70;0.60;;;31.70;65.20;;;;;;5275850;27;20482;-63
2024/04/14 09:18:43;;;;;;;0.40;0.40;;;32.20;66.20;;;;;;5279273;27;20466;-64
2024/04/14 09:21:09;;;;;;;0.40;0.40;;;32.70;66.00;;;;;;5279379;27;20503;-64
2024/04/14 09:23:34;;;;;;;0.40;0.40;;;32.80;64.50;;;;;;5279529;27;20268;-64
2024/04/14 09:26:04;;;;;;;0.50;0.50;;;33.00;63.40;;;;;;5278953;27;20253;-64
2024/04/14 09:28:30;;;;;;;0.80;0.70;;;33.30;64.60;;;;;;5279802;27;20625;-64
2024/04/14 09:30:56;;;;;;;0.50;0.40;;;33.40;63.50;;;;;;5249368;27;20531;-63
2024/04/14 09:33:23;;;;;;;0.60;0.60;;;33.40;63.10;;;;;;5245799;27;20515;-64
2024/04/14 09:35:49;;;;;;;0.40;0.40;;;33.20;62.80;;;;;;5245393;27;20270;-63
2024/04/14 09:38:17;;;;;;;0.60;0.60;;;33.30;64.80;;;;;;5243862;27;20575;-64
2024/04/14 09:40:43;;;;;;;0.50;0.50;;;33.10;65.80;;;;;;5245558;27;20575;-63
2024/04/14 09:43:13;;;;;;;0.97;0.70;;;33.20;65.00;;;;;;5246692;27;20456;-64
2024/04/14 09:45:40;;;;;;;0.70;0.70;;;33.00;65.00;;;;;;5277677;27;20478;-63
2024/04/14 09:48:08;;;;;;;0.43;0.43;;;33.20;66.40;;;;;;5279271;27;20454;-64
2024/04/14 09:50:35;;;;;;;0.50;0.50;;;33.50;66.70;;;;;;5279412;27;20451;-64
2024/04/14 09:53:02;;;;;;;0.77;0.77;;;33.60;65.80;;;;;;5279599;27;20529;-64
2024/04/14 09:55:28;;;;;;;0.43;0.43;;;33.50;66.70;;;;;;5278781;27;20422;-65
2024/04/14 09:57:54;;;;;;;0.50;0.50;;;33.30;65.90;;;;;;5277234;27;20569;-64
2024/04/14 10:00:19;;;;;;;0.67;0.67;;;32.70;66.10;;;;;;5245121;27;20552;-64
2024/04/14 10:02:59;;;;;;;0.47;0.47;;;32.30;66.40;;;;;;5245196;27;20224;-63
2024/04/14 10:05:26;;;;;;;0.53;0.53;;;32.30;68.60;;;;;;5245676;27;20275;-63
2024/04/14 10:07:51;;;;;;;0.60;0.60;;;32.20;68.90;;;;;;5245366;27;20476;-63
2024/04/14 10:10:19;;;;;;;0.70;0.70;;;32.50;67.70;;;;;;5245397;27;20496;-64
2024/04/14 10:12:45;;;;;;;0.50;0.50;;;32.80;66.10;;;;;;5255192;27;20251;-64
2024/04/14 10:15:13;;;;;;;0.80;0.50;;;32.80;66.50;;;;;;5276724;27;20502;-66
2024/04/14 10:17:39;;;;;;;0.60;0.60;;;32.90;67.60;;;;;;5278643;27;20805;-63
2024/04/14 10:20:13;;;;;;;0.70;0.70;;;32.90;68.20;;;;;;5278987;27;20562;-64
2024/04/14 10:22:41;;;;;;;0.60;0.60;;;33.10;69.30;;;;;;5279807;27;20266;-64
2024/04/14 10:25:22;;;;;;;1.27;0.37;;;32.60;67.00;;;;;;5278500;27;20514;-64
2024/04/14 10:27:48;;;;;;;0.83;0.60;;;32.70;67.70;;;;;;5257393;27;20478;-63
2024/04/14 10:30:21;;;;;;;0.30;0.30;;;32.60;68.20;;;;;;5245324;27;20511;-64
2024/04/14 10:32:48;;;;;;;0.40;0.40;;;32.50;68.40;;;;;;5245926;27;20501;-64
2024/04/14 10:35:14;;;;;;;0.30;0.30;;;32.60;67.30;;;;;;5244723;27;20464;-65
2024/04/14 10:37:40;;;;;;;0.60;0.50;;;32.40;66.60;;;;;;5244757;27;20806;-64
2024/04/14 10:40:07;;;;;;;0.70;0.50;;;32.60;69.80;;;;;;5244994;27;20524;-64
2024/04/14 10:42:36;;;;;;;0.40;0.40;;;32.50;68.50;;;;;;5266372;27;20231;-64
2024/04/14 10:45:01;;;;;;;0.30;0.30;;;32.50;67.70;;;;;;5276427;27;20536;-65
2024/04/14 10:47:29;;;;;;;0.40;0.40;;;32.60;67.40;;;;;;5278548;27;20958;-65
2024/04/14 10:49:55;;;;;;;0.30;0.30;;;32.80;69.60;;;;;;5278554;27;20223;-65
2024/04/14 10:52:21;;;;;;;0.43;0.43;;;32.80;68.90;;;;;;5278459;27;20493;-67
2024/04/14 10:54:46;;;;;;;0.53;0.53;;;32.90;69.30;;;;;;5277967;27;20701;-65
2024/04/14 10:57:13;;;;;;;0.37;0.30;;;32.80;68.30;;;;;;5250800;27;20581;-64
2024/04/14 10:59:39;;;;;;;0.30;0.30;;;32.60;69.00;;;;;;5244608;27;20338;-65
2024/04/14 11:02:05;;;;;;;0.70;0.50;;;32.30;68.80;;;;;;5272254;27;20778;-64
2024/04/14 11:04:32;;;;;;;0.43;0.43;;;31.90;71.30;;;;;;5278385;27;20270;-64
2024/04/14 11:06:58;;;;;;;0.77;0.77;;;31.60;68.10;;;;;;5277897;27;20337;-64
2024/04/14 11:09:25;;;;;;;1.33;0.50;;;31.30;67.60;;;;;;5277878;27;20940;-64
2024/04/14 11:11:51;;;;;;;0.67;0.67;;;31.10;69.30;;;;;;5278057;27;20450;-63
2024/04/14 11:14:21;;;;;;;0.30;0.30;;;30.60;71.60;;;;;;5278099;27;20426;-64
2024/04/14 11:16:50;;;;;;;0.33;0.33;;;29.80;72.10;;;;;;5244865;27;20479;-65
2024/04/14 11:19:16;;;;;;;0.50;0.50;;;29.30;73.10;;;;;;5244096;27;20473;-64
2024/04/14 11:21:41;;;;;;;0.30;0.30;;;28.90;74.00;;;;;;5244044;27;20451;-65
2024/04/14 11:24:10;;;;;;;0.30;0.30;;;28.80;77.50;;;;;;5244147;27;20216;-65
2024/04/14 11:26:37;;;;;;;0.60;0.60;;;28.30;76.40;;;;;;5243617;27;20258;-65
2024/04/14 11:29:03;;;;;;;0.30;0.30;;;27.90;77.30;;;;;;5244022;27;21043;-64
2024/04/14 11:31:30;;;;;;;0.30;0.20;;;27.50;76.90;;;;;;5275774;27;20466;-65
2024/04/14 11:33:58;;;;;;;0.30;0.30;;;27.30;77.60;;;;;;5277366;27;20281;-64
2024/04/14 11:36:29;;;;;;;0.90;0.90;;;27.10;79.00;;;;;;5277111;27;20458;-64
2024/04/14 11:38:55;;;;;;;0.40;0.30;;;26.80;79.50;;;;;;5278023;27;20824;-64
2024/04/14 11:41:21;;;;;;;0.60;0.60;;;26.70;81.10;;;;;;5277688;27;20423;-64
2024/04/14 11:43:46;;;;;;;0.40;0.40;;;26.80;83.70;;;;;;5273162;27;20681;-65
2024/04/14 11:46:14;;;;;;;0.30;0.30;;;26.70;82.40;;;;;;5243700;27;20706;-64
2024/04/14 11:48:39;;;;;;;0.93;0.50;;;26.80;83.10;;;;;;5243722;27;20320;-65
2024/04/14 11:51:05;;;;;;;0.40;0.40;;;26.80;81.80;;;;;;5242284;27;20508;-65
2024/04/14 11:53:31;;;;;;;0.73;0.50;;;26.80;80.30;;;;;;5243777;27;20587;-65
2024/04/14 11:55:56;;;;;;;0.30;0.30;;;26.80;81.00;;;;;;5245324;27;20745;-64
2024/04/14 11:58:25;;;;;;;0.93;0.40;;;26.90;83.50;;;;;;5243905;27;20232;-65
2024/04/14 12:00:51;;;;;;;0.30;0.30;;;26.90;80.50;;;;;;5243821;27;20290;-64
2024/04/14 12:03:17;;;;;;;0.60;0.60;;;26.80;83.50;;;;;;5243629;27;20985;-64
2024/04/14 12:05:42;;;;;;;0.30;0.30;;;26.90;84.30;;;;;;5243362;27;20274;-64
2024/04/14 12:08:08;;;;;;;0.70;0.40;;;27.00;83.50;;;;;;5244368;27;20228;-67
2024/04/14 12:10:34;;;;;;;0.40;0.40;;;27.20;82.80;;;;;;5280155;27;20604;-64
2024/04/14 12:12:59;;;;;;;0.53;0.53;;;27.20;82.00;;;;;;5279035;27;20349;-66
2024/04/14 12:15:25;;;;;;;0.40;0.40;;;27.20;82.10;;;;;;5280292;27;20526;-64
2024/04/14 12:17:50;;;;;;;0.33;0.33;;;27.20;81.50;;;;;;5280561;27;20219;-64
2024/04/14 12:20:16;;;;;;;0.53;0.53;;;27.20;82.30;;;;;;5280472;27;20265;-64
2024/04/14 12:22:42;;;;;;;0.37;0.37;;;27.00;81.30;;;;;;5280549;27;20261;-64
2024/04/14 12:25:07;;;;;;;0.30;0.27;;;26.80;83.20;;;;;;5249194;27;20274;-64
2024/04/14 12:27:33;;;;;;;0.30;0.30;;;26.60;83.10;;;;;;5246842;27;20258;-64
2024/04/14 12:29:58;;;;;;;0.40;0.33;;;26.60;83.30;;;;;;5246904;27;20609;-64
2024/04/14 12:32:24;;;;;;;0.40;0.40;;;26.40;84.40;;;;;;5247101;27;20223;-64
2024/04/14 12:34:50;;;;;;;0.40;0.40;;;26.50;84.20;;;;;;5244965;27;20227;-64
2024/04/14 12:37:16;;;;;;;0.40;0.40;;;26.50;84.30;;;;;;5247630;27;20623;-65
2024/04/14 12:39:41;;;;;;;0.33;0.33;;;26.50;84.70;;;;;;5279392;27;20451;-66
2024/04/14 12:42:07;;;;;;;0.30;0.30;;;26.50;84.60;;;;;;5280465;27;20219;-63
2024/04/14 12:44:33;;;;;;;0.30;0.30;;;26.50;84.10;;;;;;5280147;27;20319;-67
2024/04/14 12:47:00;;;;;;;0.40;0.40;;;26.40;83.70;;;;;;5279993;27;21003;-64
2024/04/14 12:49:26;;;;;;;0.40;0.40;;;26.30;83.50;;;;;;5280152;27;20227;-64
2024/04/14 12:51:58;;;;;;;0.40;0.40;;;26.30;84.30;;;;;;5280222;27;20442;-63
2024/04/14 12:54:24;;;;;;;0.30;0.30;;;26.30;85.10;;;;;;5213480;27;20452;-63
2024/04/14 12:56:50;;;;;;;0.77;0.40;;;26.10;84.40;;;;;;5213849;27;20596;-64
2024/04/14 12:59:16;;;;;;;0.40;0.40;;;26.00;83.70;;;;;;5213068;27;20942;-64
2024/04/14 13:01:42;;;;;;;0.40;0.30;;;26.00;84.30;;;;;;5213115;27;20603;-64
2024/04/14 13:04:07;;;;;;;0.30;0.30;;;25.80;82.70;;;;;;5213119;27;20451;-64
2024/04/14 13:06:33;;;;;;;0.30;0.30;;;25.60;84.40;;;;;;5245897;27;20238;-65
2024/04/14 13:08:59;;;;;;;0.30;0.20;;;25.50;86.00;;;;;;5246267;27;20265;-64
2024/04/14 13:11:25;;;;;;;0.40;0.40;;;25.40;84.80;;;;;;5246279;27;20228;-65
2024/04/14 13:13:51;;;;;;;0.40;0.30;;;25.40;85.20;;;;;;5246383;27;20488;-65
2024/04/14 13:16:17;;;;;;;0.40;0.40;;;25.30;85.50;;;;;;5245817;27;20259;-64
2024/04/14 13:18:43;;;;;;;0.30;0.30;;;25.10;85.50;;;;;;5246139;27;20272;-64
2024/04/14 13:21:09;;;;;;;0.30;0.30;;;25.00;86.90;;;;;;5275804;27;20463;-64
2024/04/14 13:23:34;;;;;;;0.40;0.30;;;24.90;86.10;;;;;;5279851;27;20414;-64
2024/04/14 13:26:00;;;;;;;0.30;0.30;;;25.10;86.00;;;;;;5279699;27;20317;-64
2024/04/14 13:28:30;;;;;;;0.30;0.30;;;25.20;88.00;;;;;;5279836;27;20273;-65
2024/04/14 13:30:56;;;;;;;0.30;0.30;;;25.40;87.70;;;;;;5279534;27;20282;-64
2024/04/14 13:33:22;;;;;;;0.30;0.30;;;25.40;86.30;;;;;;5279312;27;20522;-65
2024/04/14 13:35:47;;;;;;;0.30;0.30;;;25.30;85.50;;;;;;5250378;27;20468;-64
2024/04/14 13:38:15;;;;;;;0.30;0.30;;;25.30;85.70;;;;;;5246901;27;20671;-65
2024/04/14 13:40:41;;;;;;;0.40;0.27;;;25.30;86.30;;;;;;5245903;27;20318;-64
2024/04/14 13:43:07;;;;;;;0.30;0.20;;;25.30;86.60;;;;;;5245830;27;20494;-65
2024/04/14 13:45:33;;;;;;;0.30;0.30;;;25.30;87.50;;;;;;5245340;27;20568;-64
2024/04/14 13:47:59;;;;;;;0.40;0.40;;;25.30;85.60;;;;;;5245974;27;21047;-66
2024/04/14 13:50:24;;;;;;;0.33;0.33;;;25.40;86.90;;;;;;5247448;27;20440;-65
2024/04/14 13:52:50;;;;;;;0.30;0.30;;;25.40;85.90;;;;;;5245290;27;20268;-65
2024/04/14 13:55:15;;;;;;;0.30;0.30;;;25.40;85.90;;;;;;5243232;27;20224;-65
2024/04/14 13:57:41;;;;;;;0.30;0.30;;;25.40;85.00;;;;;;5245595;27;20735;-64
2024/04/14 14:00:08;;;;;;;0.30;0.30;;;25.50;86.30;;;;;;5243787;27;20232;-65
2024/04/14 14:02:33;;;;;;;0.30;0.30;;;25.40;86.10;;;;;;5245912;27;20244;-64
2024/04/14 14:04:59;;;;;;;0.40;0.40;;;25.40;85.20;;;;;;5275933;27;21098;-64
2024/04/14 14:07:27;;;;;;;0.30;0.20;;;25.40;85.20;;;;;;5279420;27;20594;-64
2024/04/14 14:09:53;;;;;;;0.30;0.30;;;25.30;85.10;;;;;;5279193;27;20236;-65
2024/04/14 14:12:19;;;;;;;0.33;0.33;;;25.30;86.80;;;;;;5278777;27;20510;-64
2024/04/14 14:14:45;;;;;;;0.40;0.40;;;25.30;86.00;;;;;;5278540;27;20674;-64
2024/04/14 14:17:12;;;;;;;0.40;0.30;;;25.20;85.70;;;;;;5276085;27;20518;-63
2024/04/14 14:19:38;;;;;;;0.30;0.30;;;25.10;85.30;;;;;;5245356;27;20262;-66
2024/04/14 14:22:04;;;;;;;0.30;0.30;;;25.10;87.80;;;;;;5245699;27;20471;-64
2024/04/14 14:24:29;;;;;;;0.40;0.40;;;25.10;86.80;;;;;;5245526;27;20294;-64
2024/04/14 14:26:55;;;;;;;0.30;0.30;;;25.10;88.30;;;;;;5244810;27;20243;-64
2024/04/14 14:29:20;;;;;;;0.30;0.30;;;25.10;87.50;;;;;;5245163;27;20221;-65
2024/04/14 14:31:46;;;;;;;0.50;0.50;;;25.10;86.80;;;;;;5244587;27;20539;-66
2024/04/14 14:36:56;;;;;;;0.30;0.30;;;25.10;87.10;;;;;;5278455;27;20340;-65
2024/04/14 14:39:22;;;;;;;0.50;0.50;;;25.10;86.30;;;;;;5278644;27;20605;-63
2024/04/14 14:41:47;;;;;;;0.30;0.30;;;25.10;86.80;;;;;;5277999;27;20217;-63
2024/04/14 14:44:13;;;;;;;0.40;0.40;;;25.10;86.50;;;;;;5261232;27;20761;-64
2024/04/14 14:46:38;;;;;;;0.30;0.30;;;25.10;87.00;;;;;;5244494;27;20236;-64
2024/04/14 14:49:04;;;;;;;0.30;0.30;;;25.10;87.00;;;;;;5245048;27;20220;-64
2024/04/14 14:51:29;;;;;;;0.30;0.30;;;25.10;86.50;;;;;;5245033;27;20276;-65
2024/04/14 14:53:55;;;;;;;0.30;0.30;;;25.10;86.30;;;;;;5242946;27;20589;-64
2024/04/14 14:56:21;;;;;;;0.30;0.30;;;25.10;86.80;;;;;;5244025;27;20734;-65
2024/04/14 14:58:47;;;;;;;0.63;0.63;;;25.10;87.90;;;;;;5263515;27;20295;-65
2024/04/14 15:01:13;;;;;;;0.30;0.30;;;25.20;87.60;;;;;;5278341;27;20287;-64
2024/04/14 15:03:39;;;;;;;0.30;0.30;;;25.10;87.10;;;;;;5278586;27;20506;-63
2024/04/14 15:06:05;;;;;;;0.30;0.30;;;25.10;87.00;;;;;;5262230;27;20276;-63
2024/04/14 15:08:30;;;;;;;0.60;0.40;;;25.20;87.90;;;;;;5243127;27;20799;-65
2024/04/14 15:10:56;;;;;;;0.87;0.87;;;25.20;87.00;;;;;;5244809;27;20767;-64
2024/04/14 15:13:22;;;;;;;0.30;0.30;;;25.20;86.90;;;;;;5242899;27;20256;-64
2024/04/14 15:15:57;;;;;;;0.30;0.30;;;25.10;87.00;;;;;;5242468;27;20700;-63
2024/04/14 15:18:32;;;;;;;0.40;0.40;;;25.10;87.70;;;;;;5242945;27;20985;-63
2024/04/14 15:20:57;;;;;;;0.30;0.30;;;25.00;86.90;;;;;;5262615;27;20562;-64
2024/04/14 15:23:24;;;;;;;0.30;0.30;;;25.00;87.80;;;;;;5278170;27;20458;-63
2024/04/14 15:25:50;;;;;;;0.33;0.33;;;25.00;88.10;;;;;;5277874;27;20227;-64
2024/04/14 15:28:19;;;;;;;0.50;0.50;;;25.00;88.80;;;;;;5277070;27;20540;-62
2024/04/14 15:30:45;;;;;;;0.30;0.30;;;24.90;88.40;;;;;;5277063;27;20329;-63
2024/04/14 15:33:16;;;;;;;0.80;0.60;;;24.90;88.30;;;;;;5277435;27;20438;-63
2024/04/14 15:35:48;;;;;;;0.30;0.30;;;24.80;87.50;;;;;;5277092;27;20470;-63
2024/04/14 15:38:15;;;;;;;0.30;0.30;;;24.80;87.50;;;;;;5276834;27;20478;-62
2024/04/14 15:40:43;;;;;;;0.30;0.30;;;24.80;88.10;;;;;;5276279;27;20439;-62
2024/04/14 15:43:08;;;;;;;0.47;0.47;;;24.80;87.80;;;;;;5278580;27;20479;-63
2024/04/14 15:45:37;;;;;;;0.30;0.30;;;24.70;87.50;;;;;;5280568;27;20454;-64
2024/04/14 15:48:04;;;;;;;0.30;0.30;;;24.70;88.70;;;;;;5281167;27;20218;-63
2024/04/14 15:50:29;;;;;;;0.47;0.47;;;24.60;88.60;;;;;;5255048;27;20535;-64
2024/04/14 15:52:55;;;;;;;0.30;0.30;;;24.60;88.50;;;;;;5247774;27;20507;-63
2024/04/14 15:55:20;;;;;;;0.60;0.53;;;24.60;89.40;;;;;;5245131;27;20306;-63
2024/04/14 15:57:46;;;;;;;0.30;0.30;;;24.60;90.00;;;;;;5245778;27;20235;-64
2024/04/14 16:00:12;;;;;;;0.30;0.30;;;24.60;90.10;;;;;;5247248;27;20228;-62
2024/04/14 16:02:38;;;;;;;0.57;0.57;;;24.60;90.40;;;;;;5246514;27;20320;-62
2024/04/14 16:05:04;;;;;;;0.50;0.50;;;24.60;90.40;;;;;;5269796;27;20234;-62
2024/04/14 16:07:29;;;;;;;0.50;0.50;;;24.50;90.40;;;;;;5280590;27;20231;-62
2024/04/14 16:09:55;;;;;;;0.30;0.20;;;24.50;90.30;;;;;;5280832;27;20980;-63
2024/04/14 16:12:20;;;;;;;0.33;0.33;;;24.40;90.60;;;;;;5280772;27;20575;-62
2024/04/14 16:14:47;;;;;;;0.30;0.30;;;24.30;90.50;;;;;;5280252;27;20223;-63
2024/04/14 16:17:13;;;;;;;0.30;0.30;;;24.30;91.00;;;;;;5280327;27;20337;-63
2024/04/14 16:19:39;;;;;;;0.30;0.30;;;24.20;90.80;;;;;;5252245;27;20447;-64
2024/04/14 16:22:04;;;;;;;0.70;0.70;;;24.20;91.00;;;;;;5246620;27;20850;-63
2024/04/14 16:24:30;;;;;;;0.30;0.30;;;24.20;91.30;;;;;;5246835;27;20255;-63
2024/04/14 16:26:56;;;;;;;0.30;0.30;;;24.10;91.20;;;;;;5246606;27;20240;-63
2024/04/14 16:29:21;;;;;;;0.40;0.40;;;24.00;91.40;;;;;;5246935;27;20267;-63
2024/04/14 16:31:47;;;;;;;0.37;0.33;;;24.00;91.10;;;;;;5246777;27;20224;-63
2024/04/14 16:34:12;;;;;;;0.40;0.40;;;24.00;91.40;;;;;;5272031;27;20287;-63
2024/04/14 16:36:38;;;;;;;0.30;0.30;;;23.90;91.20;;;;;;5280052;27;20226;-63
2024/04/14 16:39:03;;;;;;;1.50;1.43;;;23.90;91.20;;;;;;5280152;27;20227;-64
2024/04/14 16:41:29;;;;;;;0.30;0.30;;;23.80;91.10;;;;;;5280240;27;20329;-64
2024/04/14 16:43:56;;;;;;;0.30;0.30;;;23.80;91.30;;;;;;5278403;27;20747;-63
2024/04/14 16:46:21;;;;;;;0.30;0.30;;;23.70;91.40;;;;;;5279768;27;20450;-64
2024/04/14 16:48:47;;;;;;;1.13;0.80;;;23.60;91.50;;;;;;5279246;27;20526;-63
2024/04/14 16:51:16;;;;;;;0.30;0.20;;;23.50;91.30;;;;;;5280710;27;20682;-63